Time;durP1;ratioP1;P1;durP2;ratioP2;P2;SDS_P1;SDS_P2;PMS_P1;PMS_P2;Temp;Humidity;BMP_temperature;BMP_pressure;BME280_temperature;BME280_humidity;BME280_pressure;Samples;Min_cycle;Max_cycle;Signal;HPM_P1;HPM_P2
2021/06/14 00:00:39;;;;;;;7.87;3.93;;;;;;;12.81;100.00;101801.88;4972193;28;20714;-77
2021/06/14 00:03:07;;;;;;;5.67;3.93;;;;;;;12.82;100.00;101803.53;4940522;28;20206;-77
2021/06/14 00:05:41;;;;;;;8.47;4.53;;;;;;;12.79;100.00;101805.91;4940675;28;20225;-77
2021/06/14 00:08:11;;;;;;;5.60;4.07;;;;;;;12.81;100.00;101806.50;4969880;28;20566;-77
2021/06/14 00:10:37;;;;;;;7.33;4.23;;;;;;;12.80;100.00;101805.69;4949186;28;20222;-77
2021/06/14 00:13:04;;;;;;;8.60;4.10;;;;;;;12.69;100.00;101801.19;4948538;28;20691;-77
2021/06/14 00:15:32;;;;;;;7.73;4.53;;;;;;;12.50;100.00;101793.63;4956393;28;20233;-77
2021/06/14 00:18:00;;;;;;;6.97;3.97;;;;;;;12.47;100.00;101798.75;4941774;28;20186;-77
2021/06/14 00:20:28;;;;;;;7.10;4.37;;;;;;;12.51;100.00;101786.25;4956801;28;20189;-77
2021/06/14 00:22:53;;;;;;;6.67;4.57;;;;;;;12.45;100.00;101788.16;4940287;28;20252;-77
2021/06/14 00:25:21;;;;;;;7.57;4.00;;;;;;;12.43;100.00;101786.72;4972687;28;20194;-77
2021/06/14 00:27:49;;;;;;;6.93;4.40;;;;;;;12.48;100.00;101786.81;4957131;28;20198;-77
2021/06/14 00:30:40;;;;;;;8.20;4.40;;;;;;;12.55;100.00;101784.69;4940720;28;20192;-77
2021/06/14 00:33:06;;;;;;;6.43;4.13;;;;;;;12.51;100.00;101784.38;4954096;28;20221;-77
2021/06/14 00:35:34;;;;;;;5.40;4.07;;;;;;;12.53;100.00;101782.22;4925381;28;20667;-77
2021/06/14 00:38:02;;;;;;;6.40;4.57;;;;;;;12.49;100.00;101780.25;4942150;28;20281;-77
2021/06/14 00:40:31;;;;;;;9.13;4.70;;;;;;;12.44;100.00;101778.31;4941822;28;20225;-77
2021/06/14 00:42:56;;;;;;;8.23;4.40;;;;;;;12.40;100.00;101785.34;4935999;28;20288;-77
2021/06/14 00:45:24;;;;;;;6.37;4.40;;;;;;;12.27;100.00;101782.22;4959468;28;20240;-77
2021/06/14 00:47:54;;;;;;;7.63;4.70;;;;;;;12.23;100.00;101788.41;4929662;28;20276;-77
2021/06/14 00:50:30;;;;;;;6.73;4.10;;;;;;;11.96;100.00;101788.38;4960278;28;20190;-77
2021/06/14 00:52:58;;;;;;;7.20;4.10;;;;;;;12.06;100.00;101785.78;4945797;28;20272;-78
2021/06/14 00:55:24;;;;;;;7.13;4.30;;;;;;;12.14;100.00;101788.06;4944459;28;20292;-78
2021/06/14 00:57:51;;;;;;;6.07;3.97;;;;;;;12.14;100.00;101784.50;4945309;28;20193;-77
2021/06/14 01:00:18;;;;;;;4.77;3.80;;;;;;;12.08;100.00;101772.72;4944504;28;20189;-77
2021/06/14 01:02:51;;;;;;;6.87;4.30;;;;;;;12.14;100.00;101773.59;4945959;28;20209;-77
2021/06/14 01:05:25;;;;;;;5.17;4.43;;;;;;;12.29;100.00;101771.88;4975286;28;20268;-78
2021/06/14 01:07:54;;;;;;;6.37;4.33;;;;;;;12.14;100.00;101766.28;4961179;28;20208;-77
2021/06/14 01:10:22;;;;;;;7.47;4.20;;;;;;;12.08;100.00;101767.28;4933528;28;20214;-78
2021/06/14 01:13:15;;;;;;;7.27;4.33;;;;;;;12.13;100.00;101778.22;4936110;28;20225;-78
2021/06/14 01:16:02;;;;;;;6.57;4.27;;;;;;;12.02;100.00;101762.03;4974859;28;20237;-77
2021/06/14 01:18:59;;;;;;;7.93;4.00;;;;;;;12.02;100.00;101757.41;4943728;28;20197;-78
2021/06/14 01:21:31;;;;;;;5.50;3.80;;;;;;;11.92;100.00;101761.91;4975901;28;20312;-78
2021/06/14 01:24:29;;;;;;;5.90;4.13;;;;;;;12.00;100.00;101754.13;4930343;28;20255;-78
2021/06/14 01:27:06;;;;;;;5.80;4.33;;;;;;;11.78;100.00;101752.47;4993522;28;20178;-78
2021/06/14 01:29:38;;;;;;;9.20;4.60;;;;;;;11.59;100.00;101751.16;4946080;28;20224;-79
2021/06/14 01:32:06;;;;;;;5.70;4.07;;;;;;;11.59;100.00;101755.75;4943734;28;20705;-78
2021/06/14 01:34:36;;;;;;;5.47;4.17;;;;;;;11.45;100.00;101764.56;4927593;28;20184;-78
2021/06/14 01:37:03;;;;;;;6.07;4.00;;;;;;;11.58;100.00;101754.13;4926943;28;20681;-78
2021/06/14 01:39:33;;;;;;;6.50;4.13;;;;;;;11.62;100.00;101744.38;4947444;28;21034;-79
2021/06/14 01:42:04;;;;;;;6.73;4.07;;;;;;;11.66;100.00;101750.94;4931867;29;20219;-79
2021/06/14 01:44:30;;;;;;;5.60;3.97;;;;;;;11.73;100.00;101751.59;4957442;28;20185;-78
2021/06/14 01:46:57;;;;;;;5.93;4.03;;;;;;;11.73;100.00;101740.72;4960246;28;20192;-78
2021/06/14 01:49:25;;;;;;;6.10;3.97;;;;;;;11.57;100.00;101736.13;4928771;28;20828;-78
2021/06/14 01:51:59;;;;;;;6.67;4.07;;;;;;;11.47;100.00;101741.44;4920917;28;20595;-78
2021/06/14 01:54:30;;;;;;;7.37;3.80;;;;;;;11.38;100.00;101742.91;4941149;28;20194;-78
2021/06/14 01:57:06;;;;;;;5.33;4.07;;;;;;;11.37;100.00;101735.84;4961115;28;20234;-78
2021/06/14 01:59:45;;;;;;;8.27;4.43;;;;;;;11.39;100.00;101732.84;4951574;28;20246;-78
2021/06/14 02:02:19;;;;;;;7.70;4.60;;;;;;;11.37;100.00;101741.28;4939060;28;20213;-77
2021/06/14 02:04:46;;;;;;;5.70;3.67;;;;;;;11.43;100.00;101723.13;4957951;28;20620;-77
2021/06/14 02:07:27;;;;;;;6.40;4.00;;;;;;;11.38;100.00;101732.03;4946329;28;20181;-77
2021/06/14 02:09:56;;;;;;;5.97;3.87;;;;;;;11.51;100.00;101731.72;4938497;28;20194;-77
2021/06/14 02:12:23;;;;;;;5.57;3.87;;;;;;;11.59;100.00;101723.09;4944915;28;20209;-77
2021/06/14 02:14:51;;;;;;;5.87;3.67;;;;;;;11.62;100.00;101717.16;4926180;28;20317;-77
2021/06/14 02:17:20;;;;;;;6.17;4.03;;;;;;;11.59;100.00;101720.38;4973461;28;20669;-78
2021/06/14 02:19:47;;;;;;;5.83;3.90;;;;;;;11.53;100.00;101718.66;4958305;28;20279;-78
2021/06/14 02:22:20;;;;;;;6.07;3.83;;;;;;;11.51;100.00;101704.50;4957020;28;20712;-77
2021/06/14 02:24:47;;;;;;;6.07;4.03;;;;;;;11.45;100.00;101712.88;4958850;28;20298;-77
2021/06/14 02:27:15;;;;;;;5.83;3.67;;;;;;;11.31;100.00;101712.34;4941788;28;20250;-77
2021/06/14 02:29:43;;;;;;;6.43;4.00;;;;;;;11.31;100.00;101703.38;4941386;28;20212;-78
2021/06/14 02:32:09;;;;;;;5.27;3.90;;;;;;;11.41;100.00;101709.78;4940890;28;20264;-77
2021/06/14 02:34:37;;;;;;;6.47;3.83;;;;;;;11.37;100.00;101705.09;4954676;28;20272;-78
2021/06/14 02:37:05;;;;;;;6.77;3.90;;;;;;;11.23;100.00;101701.91;4922591;28;20194;-77
2021/06/14 02:39:37;;;;;;;6.17;4.50;;;;;;;11.22;100.00;101700.25;4923638;28;20213;-77
2021/06/14 02:42:05;;;;;;;6.87;4.13;;;;;;;11.20;100.00;101691.53;4937061;28;20210;-78
2021/06/14 02:44:31;;;;;;;5.37;3.70;;;;;;;11.13;100.00;101686.53;4922646;28;20236;-77
2021/06/14 02:47:06;;;;;;;5.10;3.70;;;;;;;11.23;100.00;101688.31;4922970;28;20194;-78
2021/06/14 02:49:31;;;;;;;7.73;4.40;;;;;;;11.29;100.00;101695.47;4953645;28;20640;-77
2021/06/14 02:51:58;;;;;;;7.33;4.83;;;;;;;11.26;100.00;101693.25;4937212;28;20210;-78
2021/06/14 02:54:48;;;;;;;5.97;4.07;;;;;;;11.02;100.00;101698.31;4953685;28;20190;-77
2021/06/14 02:57:14;;;;;;;5.83;3.97;;;;;;;11.09;100.00;101693.53;4925047;28;20191;-77
2021/06/14 02:59:41;;;;;;;5.50;4.27;;;;;;;11.09;100.00;101693.53;4922441;28;20194;-77
2021/06/14 03:02:08;;;;;;;6.53;4.17;;;;;;;11.09;100.00;101691.63;4921587;28;20214;-78
2021/06/14 03:04:39;;;;;;;5.70;3.93;;;;;;;11.19;100.00;101703.50;4938027;28;20187;-78
2021/06/14 03:07:05;;;;;;;5.67;3.90;;;;;;;11.20;100.00;101696.97;4953889;28;20190;-78
2021/06/14 03:09:32;;;;;;;6.03;4.00;;;;;;;11.27;100.00;101692.19;4938351;28;20360;-77
2021/06/14 03:12:00;;;;;;;5.47;4.30;;;;;;;11.42;100.00;101689.66;4937201;28;20223;-78
2021/06/14 03:14:26;;;;;;;6.00;3.80;;;;;;;11.49;100.00;101678.63;4922701;28;20198;-78
2021/06/14 03:16:52;;;;;;;6.20;3.87;;;;;;;11.34;100.00;101676.50;4929731;28;20177;-77
2021/06/14 03:19:23;;;;;;;6.73;4.00;;;;;;;11.27;100.00;101670.41;4925536;28;20926;-78
2021/06/14 03:29:55;;;;;;;5.83;3.63;;;;;;;11.49;100.00;101678.63;5665079;22;20313;-75
2021/06/14 03:35:06;;;;;;;4.60;3.80;;;;;;;11.63;100.00;101669.84;5546988;23;20248;-76
2021/06/14 03:53:06;;;;;;;5.47;4.20;;;;;;;12.04;100.00;101668.09;5128651;27;20524;-76
2021/06/14 03:55:32;;;;;;;5.67;4.33;;;;;;;12.18;100.00;101669.34;5084278;28;20201;-77
2021/06/14 03:57:58;;;;;;;5.90;4.30;;;;;;;12.23;100.00;101666.66;5068141;28;20199;-77
2021/06/14 04:00:23;;;;;;;6.70;4.20;;;;;;;12.18;100.00;101666.63;5067507;28;20193;-76
2021/06/14 04:02:49;;;;;;;6.80;3.90;;;;;;;12.41;100.00;101661.63;5086623;28;20213;-76
2021/06/14 04:05:28;;;;;;;6.20;4.07;;;;;;;12.60;100.00;101656.63;5067882;28;20193;-76
2021/06/14 04:08:20;;;;;;;7.80;4.43;;;;;;;12.56;100.00;101660.94;5066927;28;20182;-76
2021/06/14 04:10:48;;;;;;;6.73;4.63;;;;;;;12.70;100.00;101657.53;5064549;28;20190;-76
2021/06/14 04:13:16;;;;;;;5.50;3.77;;;;;;;12.92;100.00;101660.97;5051798;28;20201;-76
2021/06/14 04:15:44;;;;;;;4.87;3.97;;;;;;;12.98;100.00;101660.75;5062763;28;20192;-75
2021/06/14 04:18:12;;;;;;;5.47;3.90;;;;;;;13.03;100.00;101641.69;5080023;28;20166;-77
2021/06/14 04:20:38;;;;;;;5.23;3.93;;;;;;;13.13;100.00;101647.19;5048963;28;20295;-76
2021/06/14 04:23:06;;;;;;;5.20;3.80;;;;;;;13.16;100.00;101643.94;5041896;28;20204;-76
2021/06/14 04:25:36;;;;;;;6.47;4.13;;;;;;;13.34;100.00;101643.50;5043218;28;20195;-77
2021/06/14 04:28:06;;;;;;;5.17;3.97;;;;;;;13.41;100.00;101638.63;5059912;28;20194;-75
2021/06/14 04:30:33;;;;;;;5.37;4.40;;;;;;;13.44;100.00;101643.53;5059611;28;20801;-76
2021/06/14 04:32:58;;;;;;;4.63;3.80;;;;;;;13.60;100.00;101640.59;5042644;28;20201;-76
2021/06/14 04:35:26;;;;;;;7.97;4.30;;;;;;;13.65;100.00;101633.22;5059539;28;20177;-76
2021/06/14 04:37:52;;;;;;;5.33;4.10;;;;;;;13.83;100.00;101632.75;5043079;28;20175;-75
2021/06/14 04:40:17;;;;;;;6.37;4.00;;;;;;;14.01;100.00;101635.81;5061356;28;20278;-76
2021/06/14 04:42:46;;;;;;;6.33;4.23;;;;;;;14.05;100.00;101641.56;5043524;28;20194;-76
2021/06/14 04:45:14;;;;;;;5.70;4.03;;;;;;;14.10;100.00;101638.81;5080100;28;20675;-76
2021/06/14 04:47:45;;;;;;;6.20;4.13;;;;;;;14.40;100.00;101634.22;5079400;28;20182;-76
2021/06/14 04:50:14;;;;;;;6.50;4.30;;;;;;;14.61;100.00;101639.38;5066188;28;20849;-75
2021/06/14 04:52:44;;;;;;;7.47;4.25;;;;;;;14.68;100.00;101646.22;5073193;28;20207;-76
2021/06/14 04:55:10;;;;;;;5.07;4.00;;;;;;;14.82;100.00;101655.50;5050126;28;20186;-75
2021/06/14 04:57:35;;;;;;;5.53;4.13;;;;;;;15.02;98.72;101655.50;5066219;28;20175;-75
2021/06/14 05:00:05;;;;;;;6.15;4.10;;;;;;;15.16;96.73;101662.88;5067185;28;20169;-76
2021/06/14 05:02:35;;;;;;;5.38;3.90;;;;;;;15.33;96.10;101662.53;5032229;28;20368;-76
2021/06/14 05:05:01;;;;;;;4.38;3.58;;;;;;;15.47;94.86;101658.94;5065941;28;20240;-75
2021/06/14 05:07:29;;;;;;;6.47;4.05;;;;;;;15.58;93.93;101655.06;5049164;28;20179;-75
2021/06/14 05:09:56;;;;;;;6.28;4.03;;;;;;;15.70;92.99;101661.84;5065783;28;20841;-76
2021/06/14 05:12:22;;;;;;;5.35;3.90;;;;;;;15.77;92.31;101660.44;5048845;28;20213;-76
2021/06/14 05:14:47;;;;;;;5.93;3.83;;;;;;;15.86;91.07;101661.50;5033181;28;20556;-76
2021/06/14 05:17:13;;;;;;;5.78;3.80;;;;;;;15.90;89.89;101659.81;5049278;28;20183;-76
2021/06/14 05:19:38;;;;;;;5.25;3.70;;;;;;;16.07;89.19;101660.25;5052599;28;20891;-76
2021/06/14 05:22:04;;;;;;;5.50;3.63;;;;;;;16.22;88.30;101649.22;5049162;28;20193;-76
2021/06/14 05:24:33;;;;;;;5.15;3.40;;;;;;;16.42;85.93;101641.66;5066531;28;20592;-76
2021/06/14 05:27:02;;;;;;;6.13;3.47;;;;;;;16.65;85.00;101640.94;5065977;28;20213;-76
2021/06/14 05:29:30;;;;;;;5.60;3.80;;;;;;;16.71;85.11;101651.56;5032728;28;20183;-76
2021/06/14 05:31:57;;;;;;;5.65;3.67;;;;;;;16.82;85.23;101658.59;5032941;28;20190;-77
2021/06/14 05:34:25;;;;;;;6.30;3.92;;;;;;;17.00;84.44;101655.13;5049370;28;20203;-76
2021/06/14 05:36:52;;;;;;;4.75;3.55;;;;;;;17.18;83.55;101648.91;5049390;28;20198;-76
2021/06/14 05:39:18;;;;;;;7.75;3.60;;;;;;;17.23;82.95;101637.88;5049355;28;20558;-76
2021/06/14 05:41:48;;;;;;;5.28;4.07;;;;;;;17.31;82.75;101634.50;5049091;28;20237;-77
2021/06/14 05:44:19;;;;;;;4.47;3.35;;;;;;;17.26;82.68;101640.88;5065773;28;20211;-76
2021/06/14 05:46:45;;;;;;;6.15;3.70;;;;;;;17.25;80.38;101641.16;5067017;28;20171;-76
2021/06/14 05:49:12;;;;;;;6.68;3.88;;;;;;;17.43;80.79;101644.78;5016859;28;20171;-77
2021/06/14 05:51:40;;;;;;;5.13;3.22;;;;;;;17.68;80.63;101640.91;5065838;28;20747;-76
2021/06/14 05:54:06;;;;;;;5.00;3.47;;;;;;;17.84;79.34;101638.47;5029312;28;20261;-75
2021/06/14 05:56:34;;;;;;;7.00;3.20;;;;;;;18.14;79.24;101641.63;5029487;28;20203;-77
2021/06/14 05:59:04;;;;;;;6.60;3.50;;;;;;;18.34;78.43;101637.75;5045743;28;20650;-77
2021/06/14 06:01:30;;;;;;;4.07;3.33;;;;;;;18.67;77.57;101629.22;5058681;28;20219;-76
2021/06/14 06:03:55;;;;;;;4.82;3.25;;;;;;;18.50;77.51;101620.72;5064424;28;20199;-76
2021/06/14 06:06:23;;;;;;;6.03;3.45;;;;;;;18.70;73.10;101623.94;5065065;28;20168;-76
2021/06/14 06:08:53;;;;;;;6.43;3.28;;;;;;;18.77;72.71;101623.53;5048673;28;20209;-76
2021/06/14 06:11:19;;;;;;;5.00;3.42;;;;;;;18.80;72.23;101625.69;5065309;28;20186;-76
2021/06/14 06:24:39;;;;;;;6.13;3.17;;;;;;;19.81;68.16;101613.97;5330451;23;20292;-77
2021/06/14 06:27:07;;;;;;;6.82;3.05;;;;;;;19.80;67.71;101607.66;4950446;28;20705;-77
2021/06/14 06:29:38;;;;;;;4.18;2.88;;;;;;;19.79;65.42;101611.53;4950901;28;20221;-78
2021/06/14 06:32:04;;;;;;;6.18;3.25;;;;;;;19.86;64.98;101606.44;4934310;28;20205;-76
2021/06/14 06:34:35;;;;;;;5.45;2.80;;;;;;;19.72;63.56;101599.28;4931760;29;20324;-76
2021/06/14 06:37:00;;;;;;;5.82;3.08;;;;;;;19.85;64.32;101604.81;4947649;29;20195;-77
2021/06/14 06:39:28;;;;;;;6.57;3.60;;;;;;;19.83;63.11;101607.03;4915768;29;20186;-78
2021/06/14 06:42:01;;;;;;;4.93;2.95;;;;;;;19.95;63.78;101601.81;4931948;29;20281;-75
2021/06/14 06:44:27;;;;;;;5.63;3.08;;;;;;;20.41;63.84;101605.94;4935022;28;20218;-77
2021/06/14 06:46:52;;;;;;;7.53;3.10;;;;;;;20.43;61.80;101594.59;4950984;28;20241;-77
2021/06/14 06:49:20;;;;;;;5.63;2.90;;;;;;;20.40;59.76;101600.72;4966154;28;20190;-75
2021/06/14 06:51:50;;;;;;;6.07;2.83;;;;;;;20.71;61.38;101596.91;4950452;28;20665;-76
2021/06/14 06:54:16;;;;;;;6.80;3.17;;;;;;;20.42;61.07;101604.00;4940489;28;20231;-76
2021/06/14 06:56:46;;;;;;;5.47;3.15;;;;;;;20.66;59.85;101605.31;4947002;29;20190;-76
2021/06/14 07:12:34;;;;;;;5.30;2.58;;;;;;;21.05;57.32;101586.88;5803267;23;20367;-77
2021/06/14 07:15:03;;;;;;;5.38;2.70;;;;;;;21.37;55.18;101571.53;4952178;28;20754;-77
2021/06/14 07:17:28;;;;;;;4.45;2.90;;;;;;;21.53;55.72;101560.88;4952505;28;20205;-77
2021/06/14 07:19:56;;;;;;;4.97;2.88;;;;;;;21.58;56.81;101560.72;4952952;28;20221;-76
2021/06/14 07:22:21;;;;;;;4.40;3.13;;;;;;;21.17;54.51;101556.66;4938916;28;20296;-76
2021/06/14 07:24:47;;;;;;;5.22;3.03;;;;;;;21.38;55.63;101553.78;4922064;28;20186;-76
2021/06/14 07:27:15;;;;;;;3.95;2.70;;;;;;;21.77;56.43;101550.97;4934728;28;20182;-77
2021/06/14 07:29:45;;;;;;;4.22;2.63;;;;;;;22.27;54.10;101551.00;4920968;28;20194;-77
2021/06/14 07:32:11;;;;;;;5.05;2.80;;;;;;;22.10;53.49;101545.41;4949247;28;20216;-77
2021/06/14 07:34:37;;;;;;;3.63;2.40;;;;;;;21.83;52.91;101544.13;4951027;28;20600;-77
2021/06/14 07:37:02;;;;;;;5.32;2.70;;;;;;;22.00;51.47;101548.53;4932862;28;20191;-77
2021/06/14 07:39:30;;;;;;;5.80;2.90;;;;;;;22.25;50.83;101542.22;4931916;28;20253;-77
2021/06/14 07:41:56;;;;;;;4.93;2.75;;;;;;;22.36;51.01;101537.94;4931002;28;20221;-76
2021/06/14 07:44:24;;;;;;;5.97;2.65;;;;;;;22.08;52.68;101542.16;4964909;28;20193;-77
2021/06/14 07:46:49;;;;;;;4.10;2.60;;;;;;;22.63;52.12;101529.25;4916474;28;20416;-77
2021/06/14 07:49:17;;;;;;;4.53;2.75;;;;;;;22.35;52.12;101530.78;4932192;28;20182;-76
2021/06/14 07:51:44;;;;;;;4.63;2.60;;;;;;;22.61;55.00;101517.69;4947068;28;20634;-77
2021/06/14 07:54:12;;;;;;;4.72;2.97;;;;;;;22.79;50.85;101523.63;4932497;28;20189;-77
2021/06/14 07:56:44;;;;;;;6.05;2.80;;;;;;;22.98;51.11;101521.31;4918849;28;20205;-77
2021/06/14 07:59:12;;;;;;;6.70;2.95;;;;;;;22.98;50.68;101524.06;4919623;28;20210;-78
2021/06/14 08:01:38;;;;;;;5.70;2.90;;;;;;;22.77;49.76;101529.88;4932602;28;20229;-77
2021/06/14 08:04:06;;;;;;;6.05;2.72;;;;;;;22.93;48.38;101520.69;4945989;28;20658;-77
2021/06/14 08:06:34;;;;;;;3.38;2.47;;;;;;;23.25;49.84;101507.78;4928361;29;20191;-77
2021/06/14 08:09:06;;;;;;;4.53;2.90;;;;;;;22.77;48.99;101521.56;4897486;29;20605;-79
2021/06/14 08:11:32;;;;;;;3.80;2.60;;;;;;;23.07;47.20;101522.06;4945089;29;20238;-78
2021/06/14 08:13:58;;;;;;;4.05;2.80;;;;;;;22.72;47.57;101519.75;4943068;28;20216;-77
2021/06/14 08:16:24;;;;;;;3.70;2.50;;;;;;;23.20;48.47;101509.94;4915696;28;20724;-77
2021/06/14 08:26:33;;;;;;;3.63;3.00;;;;;;;23.53;45.83;101497.00;4920122;28;20186;-78
2021/06/14 08:28:59;;;;;;;4.47;2.40;;;;;;;23.39;46.94;101494.50;4934624;28;20584;-77
2021/06/14 08:31:31;;;;;;;5.22;3.00;;;;;;;23.54;47.61;101502.22;4934128;28;20213;-78
2021/06/14 08:33:56;;;;;;;5.40;3.10;;;;;;;23.67;46.82;101492.84;4920133;28;20703;-78
2021/06/14 08:36:25;;;;;;;4.97;3.15;;;;;;;24.18;45.73;101493.22;4934584;28;20190;-77
2021/06/14 08:38:50;;;;;;;4.38;2.78;;;;;;;23.59;46.40;101491.78;4951084;28;20166;-77
2021/06/14 08:41:17;;;;;;;4.32;3.00;;;;;;;23.38;47.63;101483.72;4918297;28;20689;-77
2021/06/14 08:43:51;;;;;;;4.40;2.50;;;;;;;23.70;44.55;101493.00;4935261;28;20190;-77
2021/06/14 08:46:17;;;;;;;3.83;2.72;;;;;;;23.98;45.12;101471.84;4934854;28;20186;-77
2021/06/14 08:48:43;;;;;;;5.15;3.00;;;;;;;23.97;44.12;101471.03;4934254;28;20569;-76
2021/06/14 08:51:09;;;;;;;3.30;2.58;;;;;;;23.73;45.42;101460.97;4903805;29;20215;-77
2021/06/14 08:53:44;;;;;;;7.38;2.83;;;;;;;24.29;46.28;101464.69;4915492;29;20191;-77
2021/06/14 08:56:12;;;;;;;5.70;3.30;;;;;;;23.79;45.64;101457.66;4929718;28;20182;-77
2021/06/14 08:58:38;;;;;;;3.90;2.83;;;;;;;24.05;45.10;101458.22;4918602;28;20182;-77
2021/06/14 09:01:04;;;;;;;4.47;3.00;;;;;;;24.34;46.21;101455.31;4933306;28;20210;-77
2021/06/14 09:03:31;;;;;;;3.97;2.70;;;;;;;24.57;46.50;101452.56;4937253;28;20182;-76
2021/06/14 09:05:59;;;;;;;3.53;2.85;;;;;;;24.87;43.88;101448.41;4967657;28;20186;-77
2021/06/14 09:08:25;;;;;;;4.82;3.03;;;;;;;24.82;43.69;101445.88;4967354;28;20190;-76
2021/06/14 09:10:54;;;;;;;4.20;2.88;;;;;;;24.90;43.81;101439.38;4949538;28;20209;-76
2021/06/14 09:13:28;;;;;;;3.92;2.70;;;;;;;24.87;43.53;101426.16;4919752;28;20288;-77
2021/06/14 09:16:17;;;;;;;5.53;3.05;;;;;;;24.57;43.28;101419.22;4915422;29;20206;-75
2021/06/14 09:18:46;;;;;;;5.68;3.08;;;;;;;24.46;46.13;101428.38;4915811;29;20361;-76
2021/06/14 09:21:14;;;;;;;4.32;3.05;;;;;;;24.96;44.63;101413.00;4946996;28;20225;-75
2021/06/14 09:23:43;;;;;;;5.13;2.95;;;;;;;24.43;45.03;101409.59;4915099;29;20204;-76
2021/06/14 09:26:23;;;;;;;4.20;2.80;;;;;;;24.86;45.17;101399.53;4931009;29;20198;-75
2021/06/14 09:28:57;;;;;;;3.53;2.80;;;;;;;25.06;45.74;101393.06;4915287;29;20769;-76
2021/06/14 09:31:26;;;;;;;4.50;3.22;;;;;;;25.68;43.91;101386.66;4914832;29;20215;-76
2021/06/14 09:33:51;;;;;;;4.97;2.92;;;;;;;25.52;44.74;101385.75;4931011;29;20171;-76
2021/06/14 09:36:22;;;;;;;5.05;3.30;;;;;;;24.84;44.61;101394.31;4914769;29;20202;-77
2021/06/14 09:38:50;;;;;;;3.92;3.13;;;;;;;25.13;44.64;101380.19;4930998;29;20827;-77
2021/06/14 09:41:17;;;;;;;4.70;2.95;;;;;;;24.90;43.67;101383.78;4914439;29;20199;-76
2021/06/14 09:43:48;;;;;;;5.57;2.80;;;;;;;24.73;44.12;101384.03;4944235;28;20719;-77
2021/06/14 09:46:32;;;;;;;3.67;2.90;;;;;;;25.19;44.85;101371.22;4934947;28;20640;-76
2021/06/14 09:48:58;;;;;;;5.43;2.75;;;;;;;25.64;43.53;101366.22;4935067;28;20214;-76
2021/06/14 09:51:24;;;;;;;5.53;2.90;;;;;;;25.02;43.62;101347.63;4933266;28;20198;-76
2021/06/14 09:53:54;;;;;;;7.07;2.88;;;;;;;24.83;44.10;101352.97;4918514;28;20270;-75
2021/06/14 09:56:27;;;;;;;5.00;2.58;;;;;;;25.49;44.71;101358.59;4918318;28;20270;-77
2021/06/14 09:58:58;;;;;;;6.93;2.90;;;;;;;25.72;43.32;101360.50;4934822;28;20846;-76
2021/06/14 10:01:35;;;;;;;4.10;2.80;;;;;;;25.89;42.26;101357.41;4933118;28;20800;-77
2021/06/14 10:04:10;;;;;;;5.75;3.20;;;;;;;26.00;42.50;101355.72;4950307;28;20186;-77
2021/06/14 10:06:38;;;;;;;3.83;2.28;;;;;;;25.70;41.71;101353.69;4950285;28;20189;-76
2021/06/14 10:09:08;;;;;;;4.97;2.45;;;;;;;25.94;42.59;101355.16;4944929;28;20253;-77
2021/06/14 10:11:39;;;;;;;3.88;2.67;;;;;;;25.93;41.73;101344.38;4948526;28;20292;-76
2021/06/14 10:14:12;;;;;;;3.85;2.72;;;;;;;26.37;41.76;101336.44;4916961;28;20232;-77
2021/06/14 10:16:40;;;;;;;4.25;2.88;;;;;;;26.83;39.97;101336.41;4949815;28;20186;-76
2021/06/14 10:19:09;;;;;;;4.78;2.47;;;;;;;26.10;40.50;101339.28;4906527;28;20912;-78
2021/06/14 10:21:43;;;;;;;3.50;2.33;;;;;;;26.19;39.80;101334.34;4949707;28;20226;-76
2021/06/14 10:24:12;;;;;;;4.15;2.45;;;;;;;26.46;41.14;101344.59;4933974;28;20213;-76
2021/06/14 10:26:42;;;;;;;4.85;2.58;;;;;;;26.42;40.39;101346.50;4920536;28;20193;-78
2021/06/14 10:29:12;;;;;;;4.50;2.70;;;;;;;26.67;39.21;101345.13;4954748;28;20190;-78
2021/06/14 10:31:44;;;;;;;3.80;2.17;;;;;;;26.82;38.29;101351.50;4949550;28;20700;-78
2021/06/14 10:34:15;;;;;;;3.30;2.40;;;;;;;26.72;38.80;101346.47;4949146;28;20182;-78
2021/06/14 10:36:48;;;;;;;3.42;2.45;;;;;;;26.69;38.89;101347.19;4934243;28;20186;-78
2021/06/14 10:39:16;;;;;;;4.28;2.47;;;;;;;27.04;40.38;101334.09;4919242;28;20189;-78
2021/06/14 10:41:45;;;;;;;6.93;2.60;;;;;;;26.90;39.20;101330.97;4948526;28;20226;-78
2021/06/14 10:44:13;;;;;;;4.30;2.60;;;;;;;27.11;38.74;101340.63;4918008;28;20584;-78
2021/06/14 10:46:44;;;;;;;3.33;2.30;;;;;;;27.04;37.92;101322.13;4933833;28;20193;-78
2021/06/14 10:49:12;;;;;;;3.22;2.20;;;;;;;27.32;39.35;101312.34;4917278;28;20697;-79
2021/06/14 10:51:37;;;;;;;4.13;2.60;;;;;;;27.28;38.10;101317.06;4945487;28;20206;-78
2021/06/14 10:54:06;;;;;;;4.95;2.70;;;;;;;27.37;38.11;101320.44;4967711;28;20178;-78
2021/06/14 10:56:38;;;;;;;4.45;2.20;;;;;;;27.48;37.51;101327.09;4933826;28;20201;-78
2021/06/14 10:59:05;;;;;;;5.25;2.58;;;;;;;27.13;36.97;101318.75;4965865;28;20189;-78
2021/06/14 11:01:37;;;;;;;5.22;2.30;;;;;;;27.12;37.62;101314.34;4916594;28;20633;-78
2021/06/14 11:04:06;;;;;;;3.75;2.30;;;;;;;26.98;38.80;101312.41;4933826;28;20190;-78
2021/06/14 11:06:36;;;;;;;3.13;1.70;;;;;;;27.31;37.80;101319.94;4917526;28;20255;-78
2021/06/14 11:09:09;;;;;;;2.78;1.95;;;;;;;27.98;36.99;101311.69;4918521;28;20209;-78
2021/06/14 11:11:46;;;;;;;2.67;2.08;;;;;;;27.63;37.76;101308.25;4932880;28;20206;-79
2021/06/14 11:14:12;;;;;;;3.70;2.00;;;;;;;27.83;35.87;101300.66;4948467;28;20197;-78
2021/06/14 11:16:42;;;;;;;3.80;2.10;;;;;;;27.98;35.61;101297.72;4949567;28;20680;-78
2021/06/14 11:19:08;;;;;;;3.50;2.47;;;;;;;27.79;35.96;101294.19;4932843;28;20205;-77
2021/06/14 11:21:36;;;;;;;3.78;2.10;;;;;;;27.96;36.58;101291.69;4946497;28;20211;-76
2021/06/14 11:24:11;;;;;;;3.80;2.38;;;;;;;27.96;36.42;101288.91;4916245;28;20764;-76
2021/06/14 11:26:40;;;;;;;4.10;2.58;;;;;;;27.53;35.79;101285.72;4931186;28;20200;-75
2021/06/14 11:29:17;;;;;;;3.58;2.10;;;;;;;27.65;37.17;101289.13;4931926;28;20210;-76
2021/06/14 11:31:56;;;;;;;2.72;1.70;;;;;;;28.19;35.43;101270.19;4930329;28;20341;-77
2021/06/14 11:34:25;;;;;;;3.47;2.00;;;;;;;28.35;35.33;101266.88;4931953;28;20209;-77
2021/06/14 11:36:56;;;;;;;2.65;1.90;;;;;;;28.27;34.28;101279.09;4916556;28;20285;-77
2021/06/14 11:39:22;;;;;;;3.60;1.98;;;;;;;28.46;34.73;101281.81;4948685;28;20194;-78
2021/06/14 11:41:47;;;;;;;3.30;2.15;;;;;;;28.52;35.15;101285.91;4931417;28;20225;-77
2021/06/14 11:44:28;;;;;;;4.75;2.42;;;;;;;28.69;35.08;101285.38;4947824;28;20194;-77
2021/06/14 11:47:13;;;;;;;3.22;2.13;;;;;;;28.36;34.69;101293.63;4929242;29;20706;-77
2021/06/14 11:49:41;;;;;;;2.40;2.20;;;;;;;28.42;34.88;101292.13;4934030;28;20196;-78
2021/06/14 11:52:22;;;;;;;3.47;2.13;;;;;;;28.67;35.07;101294.16;4947807;28;20190;-77
2021/06/14 11:54:55;;;;;;;3.38;2.17;;;;;;;28.78;33.93;101272.72;4948664;28;20204;-77
2021/06/14 11:57:25;;;;;;;4.00;2.35;;;;;;;29.01;36.86;101275.44;4932924;28;20194;-78
2021/06/14 11:59:51;;;;;;;2.78;2.30;;;;;;;28.96;33.92;101273.00;4936524;28;20190;-77
2021/06/14 12:02:24;;;;;;;3.38;2.20;;;;;;;28.85;34.41;101272.03;4935032;28;20229;-78
2021/06/14 12:05:02;;;;;;;3.05;1.80;;;;;;;28.46;34.42;101279.03;4940019;28;20551;-78
2021/06/14 12:07:33;;;;;;;3.15;2.00;;;;;;;28.74;34.94;101259.88;4937249;28;20186;-77
2021/06/14 12:10:00;;;;;;;2.42;1.75;;;;;;;28.54;33.04;101271.56;4952137;28;20212;-77
2021/06/14 12:12:30;;;;;;;2.85;1.73;;;;;;;28.58;34.29;101262.00;4936405;28;20276;-78
2021/06/14 12:14:56;;;;;;;4.97;1.80;;;;;;;28.35;35.42;101275.25;4953306;28;20846;-77
2021/06/14 12:17:26;;;;;;;3.15;2.00;;;;;;;28.56;34.57;101256.00;4953561;28;20231;-77
2021/06/14 12:19:52;;;;;;;3.38;1.50;;;;;;;28.68;33.60;101262.22;4921604;28;20179;-78
2021/06/14 12:22:23;;;;;;;7.95;5.95;;;;;;;28.81;34.13;101254.38;4966612;28;20233;-76
2021/06/14 12:24:51;;;;;;;9.40;8.32;;;;;;;28.58;33.28;101245.22;4929420;28;20244;-78
2021/06/14 12:27:17;;;;;;;2.63;1.90;;;;;;;28.59;34.23;101246.03;4925850;29;20183;-80
2021/06/14 12:29:45;;;;;;;2.00;1.52;;;;;;;28.93;33.52;101235.34;4904792;29;20187;-79